ADDS METAR Data INFO
IDs: Format: Raw Decoded Include TAF

Data at: 1118 UTC 21 Feb 2018

PANV 200956Z AUTO 22007KT 8SM OVC012 01/01 A3026 RMK AO2 SLP268 T00110006 FZRANO
PANV 200756Z AUTO 20010KT 10SM FEW007 OVC012 01/01 A3017 RMK AO2 RAE13 SLP240 P0000 T00060006 FZRANO
PANV 200141Z AUTO VRB06KT 6SM -SN BKN022 OVC033 00/M03 A3013 RMK AO2 UPB33E35SNB35 P0000 FZRANO
PANV 200056Z AUTO 10007KT 10SM BKN042 OVC070 00/M03 A3011 RMK AO2 SLP219 T00001028 FZRANO